createdAt,value
2023-04-15T00:01:19.103Z,16.08
2023-04-15T00:03:47.531Z,16.67
2023-04-15T00:06:14.994Z,16.00
2023-04-15T00:08:42.433Z,16.55
2023-04-15T00:11:10.065Z,16.20
2023-04-15T00:13:37.774Z,16.38
2023-04-15T00:16:07.434Z,16.23
2023-04-15T00:18:35.695Z,17.50
2023-04-15T00:21:03.406Z,16.90
2023-04-15T00:23:31.424Z,17.40
2023-04-15T00:25:58.669Z,17.52
2023-04-15T00:28:26.258Z,20.80
2023-04-15T00:30:53.565Z,17.75
2023-04-15T00:33:20.820Z,18.05
2023-04-15T00:35:48.065Z,18.60
2023-04-15T00:38:15.373Z,16.25
2023-04-15T00:40:43.600Z,17.30
2023-04-15T00:43:10.932Z,18.13
2023-04-15T00:45:38.600Z,17.27
2023-04-15T00:48:06.135Z,16.05
2023-04-15T00:50:33.569Z,17.20
2023-04-15T00:53:01.134Z,16.95
2023-04-15T00:55:28.533Z,17.45
2023-04-15T00:57:57.398Z,18.25
2023-04-15T01:00:24.866Z,17.77
2023-04-15T01:02:52.400Z,17.10
2023-04-15T01:05:20.021Z,16.90
2023-04-15T01:07:48.377Z,15.70
2023-04-15T01:10:15.746Z,17.25
2023-04-15T01:12:43.526Z,18.05
2023-04-15T01:15:11.197Z,16.67
2023-04-15T01:17:39.327Z,18.08
2023-04-15T01:20:10.688Z,14.30
2023-04-15T01:22:38.564Z,14.07
2023-04-15T01:25:18.749Z,14.65
2023-04-15T01:27:46.491Z,12.73
2023-04-15T01:30:13.789Z,14.35
2023-04-15T01:32:41.765Z,15.30
2023-04-15T01:35:09.919Z,14.48
2023-04-15T01:37:37.927Z,13.65
2023-04-15T01:40:05.889Z,15.18
2023-04-15T01:42:33.756Z,14.18
2023-04-15T01:45:01.178Z,12.85
2023-04-15T01:47:28.583Z,13.85
2023-04-15T01:49:56.192Z,13.60
2023-04-15T01:52:23.507Z,14.02
2023-04-15T01:54:50.910Z,11.30
2023-04-15T01:57:19.286Z,13.50
2023-04-15T01:59:46.948Z,12.35
2023-04-15T02:02:15.593Z,11.80
2023-04-15T02:04:43.113Z,9.90
2023-04-15T02:07:10.395Z,7.90
2023-04-15T02:09:38.716Z,8.23
2023-04-15T02:12:08.284Z,7.35
2023-04-15T02:14:35.678Z,6.55
2023-04-15T02:17:07.372Z,6.72
2023-04-15T02:19:35.663Z,5.85
2023-04-15T02:22:03.964Z,6.18
2023-04-15T02:24:31.283Z,5.50
2023-04-15T02:26:58.564Z,6.55
2023-04-15T02:29:26.216Z,8.13
2023-04-15T02:31:53.416Z,6.68
2023-04-15T02:34:21.296Z,7.88
2023-04-15T02:36:49.760Z,8.10
2023-04-15T02:39:18.599Z,8.95
2023-04-15T02:41:51.765Z,9.13
2023-04-15T02:44:20.548Z,9.35
2023-04-15T02:46:52.480Z,10.02
2023-04-15T02:51:49.956Z,11.55
2023-04-15T02:54:20.790Z,10.25
2023-04-15T02:56:48.164Z,11.98
2023-04-15T02:59:15.539Z,11.65
2023-04-15T03:01:43.153Z,16.35
2023-04-15T03:04:10.646Z,12.10
2023-04-15T03:06:37.973Z,11.48
2023-04-15T03:09:05.595Z,11.30
2023-04-15T03:11:37.070Z,11.57
2023-04-15T03:14:04.886Z,14.13
2023-04-15T03:16:36.048Z,9.70
2023-04-15T03:19:03.527Z,11.82
2023-04-15T03:21:34.039Z,10.82
2023-04-15T03:24:01.630Z,10.18
2023-04-15T03:26:31.030Z,9.10
2023-04-15T03:29:02.168Z,8.90
2023-04-15T03:31:30.150Z,7.07
2023-04-15T03:33:57.398Z,9.20
2023-04-15T03:36:24.646Z,8.05
2023-04-15T03:38:51.829Z,8.48
2023-04-15T03:41:19.129Z,11.52
2023-04-15T03:43:46.418Z,7.10
2023-04-15T03:46:13.698Z,9.85
2023-04-15T03:48:41.505Z,7.70
2023-04-15T03:51:08.824Z,9.90
2023-04-15T03:53:36.381Z,8.82
2023-04-15T03:56:03.668Z,7.10
2023-04-15T03:58:30.893Z,6.40
2023-04-15T04:00:58.154Z,5.07
2023-04-15T04:03:25.731Z,5.35
2023-04-15T04:05:53.626Z,8.13
2023-04-15T04:08:21.749Z,6.78
2023-04-15T04:10:48.981Z,8.88
2023-04-15T04:13:16.392Z,7.10
2023-04-15T04:15:43.870Z,10.25
2023-04-15T04:18:11.352Z,9.68
2023-04-15T04:20:38.871Z,12.68
2023-04-15T04:23:06.595Z,10.43
2023-04-15T04:25:34.417Z,9.80
2023-04-15T04:28:01.757Z,8.77
2023-04-15T04:30:29.455Z,13.90
2023-04-15T04:32:56.830Z,9.90
2023-04-15T04:35:24.151Z,8.38
2023-04-15T04:37:52.492Z,9.30
2023-04-15T04:40:19.801Z,7.97
2023-04-15T04:42:47.625Z,6.15
2023-04-15T04:45:15.170Z,4.07
2023-04-15T04:47:42.752Z,5.07
2023-04-15T04:50:10.630Z,2.97
2023-04-15T04:52:38.332Z,3.53
2023-04-15T04:55:06.541Z,2.47
2023-04-15T04:57:35.914Z,2.55
2023-04-15T05:00:05.018Z,2.33
2023-04-15T05:02:32.851Z,2.78
2023-04-15T05:05:00.355Z,4.78
2023-04-15T05:07:27.601Z,2.22
2023-04-15T05:09:54.971Z,3.67
2023-04-15T05:12:22.404Z,3.08
2023-04-15T05:14:49.725Z,6.00
2023-04-15T05:17:17.368Z,2.25
2023-04-15T05:19:44.673Z,4.32
2023-04-15T05:22:11.984Z,3.05
2023-04-15T05:24:39.283Z,3.90
2023-04-15T05:27:08.506Z,5.97
2023-04-15T05:29:36.101Z,5.73
2023-04-15T05:32:03.320Z,3.35
2023-04-15T05:34:30.653Z,4.22
2023-04-15T05:36:57.921Z,4.45
2023-04-15T05:39:25.249Z,4.45
2023-04-15T05:41:52.636Z,2.75
2023-04-15T05:44:20.025Z,2.65
2023-04-15T05:46:47.362Z,2.35
2023-04-15T05:49:14.616Z,1.92
2023-04-15T05:51:42.241Z,2.83
2023-04-15T05:54:09.687Z,3.25
2023-04-15T05:56:37.030Z,1.60
2023-04-15T05:59:04.292Z,2.47
2023-04-15T06:01:31.606Z,1.83
2023-04-15T06:03:59.136Z,4.20
2023-04-15T06:06:27.276Z,2.72
2023-04-15T06:08:55.929Z,2.05
2023-04-15T06:11:23.299Z,2.95
2023-04-15T06:13:50.648Z,3.25
2023-04-15T06:16:18.007Z,2.28
2023-04-15T06:18:45.867Z,2.20
2023-04-15T06:21:13.205Z,2.20
2023-04-15T06:23:41.416Z,2.00
2023-04-15T06:26:08.667Z,2.70
2023-04-15T06:28:36.128Z,1.95
2023-04-15T06:31:03.589Z,2.47
2023-04-15T06:33:31.831Z,2.40
2023-04-15T06:35:59.164Z,3.33
2023-04-15T06:38:26.484Z,5.57
2023-04-15T06:40:53.847Z,3.00
2023-04-15T06:43:21.045Z,5.28
2023-04-15T06:45:48.356Z,3.97
2023-04-15T06:48:15.766Z,4.03
2023-04-15T06:50:43.101Z,3.65
2023-04-15T06:53:10.329Z,3.25
2023-04-15T06:55:37.689Z,2.75
2023-04-15T06:58:05.047Z,4.78
2023-04-15T07:00:33.748Z,2.40
2023-04-15T07:03:03.749Z,2.75
2023-04-15T07:05:32.402Z,2.88
2023-04-15T07:08:00.414Z,3.70
2023-04-15T07:10:27.780Z,3.22
2023-04-15T07:12:55.101Z,4.50
2023-04-15T07:15:22.549Z,4.20
2023-04-15T07:17:50.126Z,3.08
2023-04-15T07:20:17.567Z,4.00
2023-04-15T07:22:44.999Z,5.07
2023-04-15T07:25:12.450Z,2.67
2023-04-15T07:27:39.721Z,3.35
2023-04-15T07:30:07.559Z,4.00
2023-04-15T07:32:35.254Z,5.55
2023-04-15T07:35:03.780Z,4.22
2023-04-15T07:37:31.017Z,3.53
2023-04-15T07:39:58.267Z,3.13
2023-04-15T07:42:25.640Z,3.15
2023-04-15T07:44:52.987Z,4.50
2023-04-15T07:47:20.332Z,3.17
2023-04-15T07:49:47.853Z,4.95
2023-04-15T07:52:15.166Z,3.55
2023-04-15T07:54:42.445Z,5.57
2023-04-15T07:57:09.809Z,3.58
2023-04-15T07:59:37.124Z,3.65
2023-04-15T08:02:04.634Z,6.05
2023-04-15T08:04:33.627Z,4.65
2023-04-15T08:07:01.147Z,6.37
2023-04-15T08:09:28.630Z,4.57
2023-04-15T08:11:57.087Z,4.50
2023-04-15T08:14:24.787Z,5.22
2023-04-15T08:16:52.512Z,5.40
2023-04-15T08:19:19.942Z,5.13
2023-04-15T08:21:47.198Z,3.95
2023-04-15T08:24:14.480Z,7.35
2023-04-15T08:26:42.169Z,3.78
2023-04-15T08:29:09.466Z,5.07
2023-04-15T08:31:36.731Z,4.53
2023-04-15T08:34:04.082Z,3.33
2023-04-15T08:36:32.453Z,2.95
2023-04-15T08:39:01.592Z,2.95
2023-04-15T08:41:35.865Z,2.40
2023-04-15T08:44:05.163Z,1.90
2023-04-15T08:46:34.866Z,2.70
2023-04-15T08:49:04.609Z,2.88
2023-04-15T08:51:32.807Z,4.72
2023-04-15T08:54:01.551Z,4.22
2023-04-15T08:56:33.134Z,2.42
2023-04-15T08:59:01.090Z,2.05
2023-04-15T09:01:28.998Z,2.53
2023-04-15T09:03:57.265Z,2.20
2023-04-15T09:06:25.711Z,2.05
2023-04-15T09:08:53.081Z,3.20
2023-04-15T09:11:22.343Z,3.13
2023-04-15T09:13:49.770Z,2.13
2023-04-15T09:16:17.254Z,2.25
2023-04-15T09:18:44.724Z,2.00
2023-04-15T09:21:14.140Z,4.78
2023-04-15T09:23:54.943Z,1.80
2023-04-15T09:26:37.043Z,3.33
2023-04-15T09:29:13.530Z,3.78
2023-04-15T09:31:41.684Z,4.22
2023-04-15T09:34:09.172Z,1.77
2023-04-15T09:37:00.072Z,2.00
2023-04-15T09:39:27.642Z,2.35
2023-04-15T09:42:07.769Z,2.85
2023-04-15T09:44:35.587Z,3.15
2023-04-15T09:47:05.596Z,2.50
2023-04-15T09:49:35.423Z,2.50
2023-04-15T09:52:05.992Z,2.50
2023-04-15T09:54:36.321Z,3.00
2023-04-15T09:57:10.314Z,3.10
2023-04-15T09:59:37.866Z,2.45
2023-04-15T10:02:08.823Z,4.05
2023-04-15T10:04:40.864Z,3.35
2023-04-15T10:07:12.377Z,2.55
2023-04-15T10:09:39.894Z,3.50
2023-04-15T10:12:07.391Z,3.15
2023-04-15T10:14:35.784Z,4.38
2023-04-15T10:17:05.074Z,3.72
2023-04-15T10:19:34.545Z,3.22
2023-04-15T10:22:02.253Z,2.07
2023-04-15T10:24:32.376Z,3.17
2023-04-15T10:27:00.623Z,3.58
2023-04-15T10:29:28.470Z,2.85
2023-04-15T10:31:56.499Z,4.47
2023-04-15T10:34:24.876Z,4.63
2023-04-15T10:36:56.588Z,2.33
2023-04-15T10:39:33.310Z,2.35
2023-04-15T10:42:15.494Z,1.80
2023-04-15T10:44:54.002Z,2.50
2023-04-15T10:47:22.401Z,3.25
2023-04-15T10:50:00.843Z,3.40
2023-04-15T10:52:29.540Z,2.38
2023-04-15T10:55:06.220Z,2.20
2023-04-15T10:57:39.425Z,2.33
2023-04-15T11:00:17.146Z,4.07
2023-04-15T11:03:07.379Z,2.15
2023-04-15T11:05:52.446Z,2.53
2023-04-15T11:08:20.988Z,3.30
2023-04-15T11:10:48.459Z,5.05
2023-04-15T11:13:18.474Z,3.00
2023-04-15T11:15:47.347Z,2.05
2023-04-15T11:18:16.483Z,1.75
2023-04-15T11:20:45.367Z,1.55
2023-04-15T11:23:14.745Z,1.95
2023-04-15T11:25:44.515Z,3.58
2023-04-15T11:28:13.162Z,3.83
2023-04-15T11:30:41.383Z,3.60
2023-04-15T11:33:10.459Z,3.72
2023-04-15T11:35:38.160Z,4.50
2023-04-15T11:38:06.284Z,5.63
2023-04-15T11:40:33.794Z,3.35
2023-04-15T11:43:21.634Z,4.35
2023-04-15T11:46:09.220Z,4.75
2023-04-15T11:48:36.856Z,4.57
2023-04-15T11:51:06.046Z,4.95
2023-04-15T11:53:50.520Z,4.35
2023-04-15T11:56:26.266Z,5.40
2023-04-15T11:58:57.126Z,6.45
2023-04-15T12:01:36.362Z,6.55
2023-04-15T12:04:14.904Z,5.90
2023-04-15T12:06:42.458Z,4.82
2023-04-15T12:09:12.378Z,5.35
2023-04-15T12:11:41.070Z,3.85
2023-04-15T12:14:32.758Z,3.47
2023-04-15T12:17:03.037Z,2.90
2023-04-15T12:22:09.147Z,2.97
2023-04-15T12:24:37.829Z,3.75
2023-04-15T12:27:09.506Z,2.45
2023-04-15T12:29:38.780Z,7.18
2023-04-15T12:32:06.122Z,3.10
2023-04-15T12:34:53.497Z,5.35
2023-04-15T12:37:21.048Z,4.22
2023-04-15T12:39:49.872Z,4.43
2023-04-15T12:42:37.942Z,4.32
2023-04-15T12:45:05.825Z,5.13
2023-04-15T12:47:33.672Z,3.55
2023-04-15T12:50:01.657Z,3.00
2023-04-15T12:52:28.904Z,3.50
2023-04-15T12:54:56.311Z,3.53
2023-04-15T12:57:23.581Z,2.25
2023-04-15T12:59:51.217Z,4.20
2023-04-15T13:02:18.840Z,3.17
2023-04-15T13:04:46.709Z,3.03
2023-04-15T13:07:15.793Z,3.00
2023-04-15T13:09:44.106Z,2.65
2023-04-15T13:12:13.820Z,4.82
2023-04-15T13:14:41.482Z,2.20
2023-04-15T13:17:10.298Z,2.13
2023-04-15T13:19:38.890Z,4.13
2023-04-15T13:22:07.019Z,2.92
2023-04-15T13:24:34.318Z,2.92
2023-04-15T13:27:01.673Z,3.40
2023-04-15T13:29:29.012Z,4.43
2023-04-15T13:31:56.793Z,3.00
2023-04-15T13:34:24.365Z,3.85
2023-04-15T13:36:51.604Z,3.83
2023-04-15T13:39:19.136Z,2.80
2023-04-15T13:41:46.405Z,3.13
2023-04-15T13:44:16.699Z,4.00
2023-04-15T13:46:44.312Z,4.00
2023-04-15T13:49:11.724Z,2.47
2023-04-15T13:51:40.529Z,4.18
2023-04-15T13:54:08.173Z,5.60
2023-04-15T13:56:35.969Z,2.60
2023-04-15T13:59:03.452Z,4.15
2023-04-15T14:01:31.554Z,3.65
2023-04-15T14:03:59.160Z,2.97
2023-04-15T14:06:27.993Z,5.18
2023-04-15T14:08:55.630Z,3.80
2023-04-15T14:11:23.624Z,3.40
2023-04-15T14:13:51.005Z,4.22
2023-04-15T14:16:18.430Z,3.55
2023-04-15T14:18:45.981Z,3.95
2023-04-15T14:21:13.360Z,3.72
2023-04-15T14:23:41.114Z,4.20
2023-04-15T14:26:15.477Z,4.20
2023-04-15T14:28:46.023Z,3.38
2023-04-15T14:31:14.280Z,6.35
2023-04-15T14:33:41.804Z,4.13
2023-04-15T14:36:10.404Z,4.53
2023-04-15T14:38:41.172Z,4.40
2023-04-15T14:41:10.154Z,4.03
2023-04-15T14:43:38.955Z,4.78
2023-04-15T14:46:06.812Z,7.00
2023-04-15T14:48:34.245Z,5.00
2023-04-15T14:51:01.624Z,7.13
2023-04-15T14:53:28.975Z,4.70
2023-04-15T14:55:56.414Z,9.02
2023-04-15T14:58:23.748Z,6.00
2023-04-15T15:00:51.109Z,4.82
2023-04-15T15:03:18.756Z,3.17
2023-04-15T15:05:47.302Z,5.65
2023-04-15T15:08:14.917Z,4.57
2023-04-15T15:10:49.453Z,4.20
2023-04-15T15:13:17.907Z,6.20
2023-04-15T15:15:45.516Z,5.63
2023-04-15T15:18:13.144Z,6.15
2023-04-15T15:20:40.453Z,5.28
2023-04-15T15:23:07.742Z,4.95
2023-04-15T15:25:34.994Z,5.32
2023-04-15T15:28:02.298Z,7.53
2023-04-15T15:30:30.526Z,5.60
2023-04-15T15:32:57.915Z,4.90
2023-04-15T15:35:26.063Z,6.88
2023-04-15T15:37:53.286Z,5.53
2023-04-15T15:40:21.955Z,6.35
2023-04-15T15:42:49.957Z,7.40
2023-04-15T15:45:20.105Z,6.43
2023-04-15T15:47:48.425Z,7.57
2023-04-15T15:50:16.054Z,6.25
2023-04-15T15:52:43.522Z,5.75
2023-04-15T15:55:10.964Z,7.13
2023-04-15T15:57:38.292Z,6.22
2023-04-15T16:00:12.056Z,8.02
2023-04-15T16:05:11.214Z,6.80
2023-04-15T16:07:38.557Z,5.07
2023-04-15T16:10:06.655Z,7.20
2023-04-15T16:12:35.037Z,6.65
2023-04-15T16:15:03.009Z,6.85
2023-04-15T16:17:30.551Z,5.80
2023-04-15T16:20:00.699Z,7.55
2023-04-15T16:22:28.596Z,5.70
2023-04-15T16:24:55.873Z,7.22
2023-04-15T16:27:23.235Z,5.13
2023-04-15T16:29:50.610Z,8.38
2023-04-15T16:32:18.203Z,7.57
2023-04-15T16:34:45.800Z,6.47
2023-04-15T16:37:13.110Z,9.13
2023-04-15T16:39:40.866Z,11.48
2023-04-15T16:42:08.280Z,6.32
2023-04-15T16:44:35.522Z,5.65
2023-04-15T16:47:03.163Z,6.63
2023-04-15T16:49:30.655Z,5.57
2023-04-15T16:51:58.367Z,8.27
2023-04-15T16:54:25.708Z,6.85
2023-04-15T16:56:52.947Z,6.40
2023-04-15T16:59:20.378Z,7.50
2023-04-15T17:01:47.897Z,8.25
2023-04-15T17:04:15.260Z,8.07
2023-04-15T17:06:42.993Z,6.18
2023-04-15T17:09:10.378Z,10.90
2023-04-15T17:11:40.390Z,6.05
2023-04-15T17:14:07.784Z,8.45
2023-04-15T17:16:35.993Z,7.93
2023-04-15T17:19:03.763Z,9.57
2023-04-15T17:21:31.941Z,8.70
2023-04-15T17:23:59.339Z,12.35
2023-04-15T17:26:26.680Z,10.13
2023-04-15T17:28:53.953Z,11.15
2023-04-15T17:31:21.405Z,14.40
2023-04-15T17:34:00.137Z,10.18
2023-04-15T17:36:34.045Z,11.50
2023-04-15T17:39:01.429Z,13.77
2023-04-15T17:41:28.742Z,10.18
2023-04-15T17:43:56.037Z,11.65
2023-04-15T17:46:23.486Z,9.13
2023-04-15T17:48:50.753Z,11.07
2023-04-15T17:51:18.125Z,12.40
2023-04-15T17:53:45.489Z,13.10
2023-04-15T17:56:12.937Z,10.02
2023-04-15T17:58:40.332Z,8.82
2023-04-15T18:01:07.785Z,15.85
2023-04-15T18:03:35.110Z,9.73
2023-04-15T18:06:02.551Z,8.07
2023-04-15T18:08:29.913Z,10.15
2023-04-15T18:10:57.481Z,8.05
2023-04-15T18:13:25.071Z,16.10
2023-04-15T18:15:52.425Z,13.32
2023-04-15T18:18:19.722Z,18.40
2023-04-15T18:20:47.018Z,10.20
2023-04-15T18:23:14.613Z,12.07
2023-04-15T18:25:43.588Z,12.07
2023-04-15T18:28:12.218Z,14.30
2023-04-15T18:30:39.774Z,13.45
2023-04-15T18:33:07.077Z,13.77
2023-04-15T18:35:35.145Z,11.85
2023-04-15T18:38:02.797Z,10.82
2023-04-15T18:40:30.323Z,9.73
2023-04-15T18:42:58.954Z,14.27
2023-04-15T18:45:26.501Z,15.80
2023-04-15T18:47:54.005Z,11.82
2023-04-15T18:50:21.278Z,13.20
2023-04-15T18:52:48.747Z,11.57
2023-04-15T18:55:17.749Z,15.60
2023-04-15T18:57:46.756Z,11.27
2023-04-15T19:00:17.940Z,11.60
2023-04-15T19:02:45.558Z,14.50
2023-04-15T19:05:13.105Z,13.35
2023-04-15T19:07:41.666Z,12.88
2023-04-15T19:10:09.284Z,12.63
2023-04-15T19:12:37.055Z,23.27
2023-04-15T19:15:04.835Z,33.42
2023-04-15T19:17:32.473Z,33.10
2023-04-15T19:19:59.876Z,22.48
2023-04-15T19:22:28.757Z,14.75
2023-04-15T19:24:56.389Z,13.20
2023-04-15T19:27:23.947Z,15.15
2023-04-15T19:29:51.215Z,14.25
2023-04-15T19:32:18.746Z,14.13
2023-04-15T19:34:46.504Z,12.02
2023-04-15T19:37:14.778Z,14.10
2023-04-15T19:39:42.151Z,11.90
2023-04-15T19:42:09.401Z,13.27
2023-04-15T19:44:37.340Z,16.85
2023-04-15T19:47:04.707Z,17.38
2023-04-15T19:49:32.066Z,13.98
2023-04-15T19:51:59.258Z,11.50
2023-04-15T19:54:26.570Z,12.10
2023-04-15T19:56:53.836Z,17.90
2023-04-15T19:59:21.042Z,15.15
2023-04-15T20:01:48.686Z,16.25
2023-04-15T20:04:16.167Z,17.67
2023-04-15T20:06:43.503Z,14.93
2023-04-15T20:09:11.537Z,15.63
2023-04-15T20:12:47.008Z,20.13
2023-04-15T20:14:26.586Z,17.95
2023-04-15T20:16:53.969Z,15.70
2023-04-15T20:19:21.280Z,17.92
2023-04-15T20:21:49.771Z,18.52
2023-04-15T20:24:19.887Z,24.35
2023-04-15T20:26:47.330Z,19.55
2023-04-15T20:29:14.789Z,24.58
2023-04-15T20:31:42.151Z,23.65
2023-04-15T20:34:11.387Z,29.15
2023-04-15T20:36:39.554Z,21.67
2023-04-15T20:39:07.149Z,22.10
2023-04-15T20:41:34.893Z,22.15
2023-04-15T20:44:02.183Z,25.13
2023-04-15T20:46:29.527Z,25.17
2023-04-15T20:48:56.982Z,23.85
2023-04-15T20:51:24.318Z,24.10
2023-04-15T20:53:51.898Z,30.88
2023-04-15T20:56:20.463Z,27.40
2023-04-15T20:58:47.778Z,27.17
2023-04-15T21:01:15.211Z,27.30
2023-04-15T21:03:42.865Z,28.50
2023-04-15T21:06:10.535Z,28.48
2023-04-15T21:08:37.883Z,29.23
2023-04-15T21:11:05.207Z,27.63
2023-04-15T21:13:33.699Z,30.75
2023-04-15T21:16:00.969Z,29.92
2023-04-15T21:18:28.379Z,26.83
2023-04-15T21:21:01.640Z,26.95
2023-04-15T21:23:29.891Z,30.80
2023-04-15T21:25:58.844Z,33.40
2023-04-15T21:28:28.034Z,29.42
2023-04-15T21:30:59.234Z,28.00
2023-04-15T21:33:27.124Z,29.00
2023-04-15T21:35:54.719Z,36.67
2023-04-15T21:38:23.368Z,40.05
2023-04-15T21:40:50.923Z,33.40
2023-04-15T21:43:18.238Z,30.92
2023-04-15T21:46:20.677Z,29.40
2023-04-15T21:48:33.007Z,29.90
2023-04-15T21:51:01.741Z,27.52
2023-04-15T21:53:29.158Z,29.45
2023-04-15T21:55:56.506Z,35.45
2023-04-15T21:58:23.852Z,34.22
2023-04-15T22:00:57.379Z,30.15
2023-04-15T22:03:25.018Z,34.08
2023-04-15T22:05:52.588Z,32.75
2023-04-15T22:08:21.166Z,31.98
2023-04-15T22:10:48.439Z,33.22
2023-04-15T22:13:16.504Z,28.85
2023-04-15T22:15:43.792Z,26.02
2023-04-15T22:18:12.567Z,30.85
2023-04-15T22:20:40.115Z,28.42
2023-04-15T22:23:10.319Z,30.08
2023-04-15T22:28:09.548Z,31.52
2023-04-15T22:30:41.086Z,29.40
2023-04-15T22:33:09.424Z,26.25
2023-04-15T22:35:37.447Z,27.10
2023-04-15T22:38:06.398Z,30.98
2023-04-15T22:40:33.950Z,23.02
2023-04-15T22:43:01.699Z,27.83
2023-04-15T22:45:29.096Z,23.30
2023-04-15T22:47:56.397Z,31.73
2023-04-15T22:50:23.769Z,25.42
2023-04-15T22:52:51.222Z,27.98
2023-04-15T22:55:18.582Z,26.27
2023-04-15T22:57:45.961Z,27.40
2023-04-15T23:00:13.409Z,25.98
2023-04-15T23:02:40.824Z,29.10
2023-04-15T23:05:12.432Z,22.98
2023-04-15T23:07:40.658Z,24.13
2023-04-15T23:10:08.506Z,27.52
2023-04-15T23:12:35.989Z,26.45
2023-04-15T23:15:03.840Z,27.42
2023-04-15T23:17:31.333Z,25.65
2023-04-15T23:19:58.576Z,27.75
2023-04-15T23:22:26.122Z,25.60
2023-04-15T23:24:53.327Z,26.88
2023-04-15T23:27:20.939Z,25.00
2023-04-15T23:29:48.242Z,28.83
2023-04-15T23:32:15.575Z,26.83
2023-04-15T23:34:42.906Z,25.67
2023-04-15T23:37:10.491Z,20.88
2023-04-15T23:39:37.783Z,24.80
2023-04-15T23:42:05.140Z,23.95
2023-04-15T23:44:32.354Z,19.08
2023-04-15T23:46:59.655Z,23.00
2023-04-15T23:49:26.859Z,21.27
2023-04-15T23:51:54.006Z,17.42
2023-04-15T23:54:21.330Z,19.15
2023-04-15T23:56:48.569Z,19.33
2023-04-15T23:59:15.810Z,20.00
